createdAt,value
2019-03-16T00:00:34.587Z,19.67
2019-03-16T00:03:02.533Z,23.75
2019-03-16T00:05:30.637Z,24.70
2019-03-16T00:07:58.924Z,18.30
2019-03-16T00:10:26.901Z,21.73
2019-03-16T00:12:55.590Z,20.62
2019-03-16T00:15:23.540Z,17.98
2019-03-16T00:17:51.486Z,17.60
2019-03-16T00:20:19.462Z,23.30
2019-03-16T00:22:47.768Z,20.08
2019-03-16T00:25:15.743Z,18.50
2019-03-16T00:27:44.324Z,19.47
2019-03-16T00:30:12.604Z,20.10
2019-03-16T00:32:40.954Z,20.17
2019-03-16T00:35:08.918Z,23.25
2019-03-16T00:37:36.905Z,20.03
2019-03-16T00:40:05.152Z,21.33
2019-03-16T00:42:33.577Z,17.82
2019-03-16T00:45:01.617Z,23.35
2019-03-16T00:47:29.599Z,23.32
2019-03-16T00:49:58.166Z,21.37
2019-03-16T00:52:26.112Z,16.90
2019-03-16T00:54:54.349Z,22.10
2019-03-16T00:57:22.610Z,17.10
2019-03-16T00:59:50.897Z,28.65
2019-03-16T01:02:27.184Z,21.35
2019-03-16T01:04:48.849Z,27.93
2019-03-16T01:07:17.235Z,28.73
2019-03-16T01:09:45.556Z,25.52
2019-03-16T01:12:13.775Z,25.70
2019-03-16T01:14:42.060Z,28.12
2019-03-16T01:17:10.031Z,24.35
2019-03-16T01:19:38.241Z,25.30
2019-03-16T01:22:06.506Z,16.95
2019-03-16T01:24:34.432Z,21.87
2019-03-16T01:27:02.666Z,25.15
2019-03-16T01:29:30.694Z,23.47
2019-03-16T01:31:59.048Z,24.87
2019-03-16T01:34:26.934Z,26.37
2019-03-16T01:36:55.292Z,30.72
2019-03-16T01:39:23.633Z,26.07
2019-03-16T01:41:51.622Z,23.07
2019-03-16T01:44:19.837Z,25.40
2019-03-16T01:46:47.792Z,28.23
2019-03-16T01:49:16.045Z,22.00
2019-03-16T01:51:44.012Z,24.25
2019-03-16T01:54:12.000Z,28.23
2019-03-16T01:56:41.082Z,22.93
2019-03-16T01:59:09.347Z,22.98
2019-03-16T02:01:38.028Z,22.80
2019-03-16T02:04:07.205Z,20.60
2019-03-16T02:06:35.509Z,27.05
2019-03-16T02:09:04.499Z,22.05
2019-03-16T02:11:32.434Z,20.75
2019-03-16T02:14:00.414Z,21.95
2019-03-16T02:16:30.552Z,26.30
2019-03-16T02:18:59.142Z,21.48
2019-03-16T02:21:27.364Z,21.25
2019-03-16T02:23:55.699Z,24.75
2019-03-16T02:26:23.936Z,20.90
2019-03-16T02:28:52.204Z,20.20
2019-03-16T02:31:20.522Z,24.75
2019-03-16T02:33:48.475Z,24.67
2019-03-16T02:36:17.077Z,26.05
2019-03-16T02:38:45.038Z,23.07
2019-03-16T02:41:13.321Z,23.10
2019-03-16T02:43:41.314Z,27.67
2019-03-16T02:46:09.582Z,22.17
2019-03-16T02:48:38.153Z,29.07
2019-03-16T02:51:06.110Z,26.60
2019-03-16T02:53:34.613Z,24.97
2019-03-16T02:56:02.575Z,27.13
2019-03-16T02:58:30.867Z,24.30
2019-03-16T03:00:58.815Z,26.73
2019-03-16T03:03:29.689Z,27.42
2019-03-16T03:05:56.680Z,22.77
2019-03-16T03:08:25.289Z,24.95
2019-03-16T03:10:53.554Z,26.12
2019-03-16T03:13:21.860Z,26.42
2019-03-16T03:15:50.379Z,26.97
2019-03-16T03:18:18.739Z,29.85
2019-03-16T03:20:47.036Z,25.92
2019-03-16T03:23:15.594Z,24.10
2019-03-16T03:25:43.852Z,23.90
2019-03-16T03:28:11.806Z,25.30
2019-03-16T03:30:40.378Z,22.50
2019-03-16T03:33:08.353Z,23.55
2019-03-16T03:35:36.324Z,29.42
2019-03-16T03:38:04.309Z,26.87
2019-03-16T03:40:32.850Z,25.45
2019-03-16T03:43:01.175Z,27.10
2019-03-16T03:45:29.159Z,26.87
2019-03-16T03:47:57.136Z,23.27
2019-03-16T03:50:25.177Z,24.63
2019-03-16T03:52:53.567Z,29.30
2019-03-16T03:55:21.832Z,24.70
2019-03-16T03:57:50.406Z,22.05
2019-03-16T04:00:18.369Z,23.40
2019-03-16T04:02:46.697Z,25.37
2019-03-16T04:05:16.444Z,26.87
2019-03-16T04:07:44.410Z,21.37
2019-03-16T04:10:12.647Z,31.45
2019-03-16T04:12:41.221Z,28.17
2019-03-16T04:15:09.211Z,23.38
2019-03-16T04:17:37.191Z,22.62
2019-03-16T04:20:06.430Z,22.05
2019-03-16T04:22:35.039Z,23.20
2019-03-16T04:25:03.839Z,24.10
2019-03-16T04:27:32.081Z,23.98
2019-03-16T04:30:00.784Z,25.90
2019-03-16T04:32:29.025Z,23.10
2019-03-16T04:34:57.960Z,20.95
2019-03-16T04:37:26.536Z,26.90
2019-03-16T04:39:54.492Z,24.70
2019-03-16T04:42:22.452Z,30.80
2019-03-16T04:44:50.451Z,27.87
2019-03-16T04:47:18.725Z,23.27
2019-03-16T04:49:46.696Z,24.07
2019-03-16T04:52:14.659Z,28.97
2019-03-16T04:54:43.254Z,27.23
2019-03-16T04:57:11.480Z,25.80
2019-03-16T04:59:40.126Z,26.15
2019-03-16T05:02:08.053Z,22.73
2019-03-16T05:04:42.351Z,24.10
2019-03-16T05:07:05.698Z,27.50
2019-03-16T05:09:34.290Z,28.25
2019-03-16T05:12:02.516Z,24.47
2019-03-16T05:14:30.867Z,25.27
2019-03-16T05:16:59.581Z,21.10
2019-03-16T05:19:27.518Z,23.67
2019-03-16T05:21:55.440Z,24.47
2019-03-16T05:24:23.428Z,30.63
2019-03-16T05:26:51.773Z,25.63
2019-03-16T05:29:20.281Z,24.07
2019-03-16T05:31:50.698Z,27.77
2019-03-16T05:34:20.028Z,26.73
2019-03-16T05:36:47.968Z,24.23
2019-03-16T05:39:16.262Z,25.12
2019-03-16T05:41:44.216Z,22.07
2019-03-16T05:44:12.789Z,22.58
2019-03-16T05:46:41.074Z,27.07
2019-03-16T05:49:09.026Z,24.23
2019-03-16T05:51:37.613Z,23.43
2019-03-16T05:54:05.589Z,28.38
2019-03-16T05:56:34.746Z,26.75
2019-03-16T05:59:03.468Z,27.65
2019-03-16T06:01:31.502Z,28.92
2019-03-16T06:03:59.723Z,23.10
2019-03-16T06:06:27.744Z,26.27
2019-03-16T06:08:56.082Z,26.12
2019-03-16T06:11:24.074Z,24.12
2019-03-16T06:13:52.716Z,31.33
2019-03-16T06:16:21.102Z,27.80
2019-03-16T06:18:49.430Z,24.07
2019-03-16T06:21:19.238Z,27.82
2019-03-16T06:23:47.473Z,25.45
2019-03-16T06:26:15.713Z,30.02
2019-03-16T06:28:43.702Z,29.52
2019-03-16T06:31:11.708Z,25.00
2019-03-16T06:33:39.678Z,24.20
2019-03-16T06:36:07.647Z,25.10
2019-03-16T06:38:36.124Z,18.32
2019-03-16T06:41:04.048Z,23.63
2019-03-16T06:43:32.019Z,24.70
2019-03-16T06:46:00.051Z,25.77
2019-03-16T06:48:28.378Z,28.40
2019-03-16T06:50:56.641Z,24.18
2019-03-16T06:53:24.586Z,30.50
2019-03-16T06:55:52.592Z,25.12
2019-03-16T06:58:20.561Z,23.62
2019-03-16T07:00:48.449Z,26.30
2019-03-16T07:03:17.031Z,25.37
2019-03-16T07:05:45.614Z,26.02
2019-03-16T07:08:13.903Z,25.10
2019-03-16T07:10:42.191Z,27.52
2019-03-16T07:13:10.437Z,27.37
2019-03-16T07:15:38.722Z,27.10
2019-03-16T07:18:06.993Z,27.53
2019-03-16T07:20:34.945Z,26.05
2019-03-16T07:23:02.915Z,23.42
2019-03-16T07:25:31.206Z,28.80
2019-03-16T07:27:59.491Z,23.18
2019-03-16T07:30:27.762Z,22.60
2019-03-16T07:32:56.042Z,21.77
2019-03-16T07:35:24.297Z,20.90
2019-03-16T07:37:52.522Z,25.02
2019-03-16T07:40:20.482Z,28.05
2019-03-16T07:42:48.739Z,24.65
2019-03-16T07:45:17.035Z,26.50
2019-03-16T07:47:44.999Z,21.85
2019-03-16T07:50:13.576Z,27.42
2019-03-16T07:52:42.361Z,20.08
2019-03-16T07:55:10.734Z,27.97
2019-03-16T07:57:40.368Z,25.00
2019-03-16T08:00:08.812Z,20.00
2019-03-16T08:02:36.752Z,26.25
2019-03-16T08:05:17.554Z,24.80
2019-03-16T08:07:34.733Z,27.35
2019-03-16T08:10:04.872Z,27.87
2019-03-16T08:12:32.862Z,23.98
2019-03-16T08:15:01.462Z,25.37
2019-03-16T08:17:29.712Z,27.67
2019-03-16T08:19:58.021Z,24.45
2019-03-16T08:22:25.957Z,25.10
2019-03-16T08:24:53.893Z,22.90
2019-03-16T08:27:21.873Z,22.37
2019-03-16T08:29:51.633Z,24.80
2019-03-16T08:32:19.902Z,21.20
2019-03-16T08:34:48.095Z,28.40
2019-03-16T08:37:16.073Z,27.90
2019-03-16T08:39:44.617Z,22.37
2019-03-16T08:42:12.919Z,20.65
2019-03-16T08:44:41.188Z,24.45
2019-03-16T08:47:09.141Z,27.07
2019-03-16T08:49:37.332Z,24.35
2019-03-16T08:52:05.618Z,22.17
2019-03-16T08:54:33.874Z,26.07
2019-03-16T08:57:02.174Z,25.90
2019-03-16T08:59:30.137Z,24.45
2019-03-16T09:01:58.122Z,20.10
2019-03-16T09:04:26.694Z,23.25
2019-03-16T09:06:55.053Z,20.70
2019-03-16T09:09:23.009Z,26.23
2019-03-16T09:11:51.321Z,22.35
2019-03-16T09:14:19.277Z,23.65
2019-03-16T09:16:47.770Z,23.20
2019-03-16T09:19:15.727Z,21.75
2019-03-16T09:21:44.007Z,20.90
2019-03-16T09:24:12.806Z,19.00
2019-03-16T09:26:41.365Z,20.57
2019-03-16T09:29:14.888Z,22.82
2019-03-16T09:31:39.528Z,20.85
2019-03-16T09:34:09.356Z,17.57
2019-03-16T09:36:37.673Z,22.17
2019-03-16T09:39:06.901Z,23.80
2019-03-16T09:41:35.665Z,20.45
2019-03-16T09:44:04.449Z,17.80
2019-03-16T09:46:32.818Z,17.73
2019-03-16T09:49:01.130Z,21.97
2019-03-16T09:51:29.789Z,20.92
2019-03-16T09:53:58.362Z,20.50
2019-03-16T09:56:26.684Z,20.25
2019-03-16T09:58:54.624Z,17.80
2019-03-16T10:01:23.156Z,20.27
2019-03-16T10:03:51.484Z,18.92
2019-03-16T10:06:19.511Z,16.82
2019-03-16T10:08:48.148Z,19.80
2019-03-16T10:11:16.197Z,17.20
2019-03-16T10:13:44.586Z,19.48
2019-03-16T10:16:12.984Z,17.42
2019-03-16T10:18:41.031Z,21.82
2019-03-16T10:21:09.065Z,19.98
2019-03-16T10:23:37.572Z,18.20
2019-03-16T10:26:05.587Z,16.82
2019-03-16T10:28:43.167Z,18.20
2019-03-16T10:31:03.956Z,21.62
2019-03-16T10:33:31.953Z,23.75
2019-03-16T10:35:59.889Z,23.02
2019-03-16T10:38:27.904Z,22.37
2019-03-16T10:40:55.869Z,17.98
2019-03-16T10:43:23.841Z,20.97
2019-03-16T10:45:52.186Z,18.92
2019-03-16T10:48:20.769Z,17.80
2019-03-16T10:50:49.052Z,17.90
2019-03-16T10:53:17.406Z,16.42
2019-03-16T10:55:47.548Z,19.20
2019-03-16T10:58:15.806Z,20.12
2019-03-16T11:00:44.413Z,19.10
2019-03-16T11:03:12.420Z,15.05
2019-03-16T11:05:40.708Z,14.23
2019-03-16T11:08:08.840Z,17.53
2019-03-16T11:10:36.948Z,15.97
2019-03-16T11:13:05.659Z,12.53
2019-03-16T11:15:33.628Z,10.18
2019-03-16T11:18:03.837Z,12.85
2019-03-16T11:20:31.708Z,11.95
2019-03-16T11:22:59.639Z,9.60
2019-03-16T11:25:27.995Z,9.90
2019-03-16T11:27:56.239Z,7.47
2019-03-16T11:30:24.239Z,9.50
2019-03-16T11:32:52.269Z,4.95
2019-03-16T11:35:20.699Z,5.80
2019-03-16T11:37:48.956Z,8.08
2019-03-16T11:40:16.910Z,8.20
2019-03-16T11:42:45.256Z,9.23
2019-03-16T11:45:13.548Z,9.95
2019-03-16T11:47:41.768Z,9.40
2019-03-16T11:50:09.985Z,10.20
2019-03-16T11:52:38.324Z,6.90
2019-03-16T11:55:06.579Z,6.70
2019-03-16T11:57:34.878Z,8.33
2019-03-16T12:00:02.866Z,8.20
2019-03-16T12:02:31.129Z,5.70
2019-03-16T12:04:59.102Z,8.03
2019-03-16T12:07:27.065Z,8.40
2019-03-16T12:09:55.346Z,7.92
2019-03-16T12:12:23.605Z,8.50
2019-03-16T12:14:53.741Z,10.50
2019-03-16T12:17:22.321Z,10.23
2019-03-16T12:19:50.285Z,8.70
2019-03-16T12:22:18.265Z,4.58
2019-03-16T12:24:46.298Z,8.70
2019-03-16T12:27:14.606Z,7.58
2019-03-16T12:29:42.853Z,9.80
2019-03-16T12:32:11.212Z,9.75
2019-03-16T12:34:39.801Z,7.78
2019-03-16T12:37:07.792Z,7.53
2019-03-16T12:39:36.074Z,8.03
2019-03-16T12:42:05.184Z,10.85
2019-03-16T12:44:33.478Z,10.30
2019-03-16T12:47:01.448Z,8.43
2019-03-16T12:49:29.427Z,10.18
2019-03-16T12:51:57.393Z,6.75
2019-03-16T12:54:25.658Z,7.67
2019-03-16T12:56:53.617Z,7.40
2019-03-16T12:59:22.216Z,7.28
2019-03-16T13:01:50.793Z,7.53
2019-03-16T13:04:18.755Z,6.90
2019-03-16T13:06:47.058Z,4.45
2019-03-16T13:09:16.806Z,7.85
2019-03-16T13:11:44.815Z,7.05
2019-03-16T13:14:12.786Z,6.47
2019-03-16T13:16:41.070Z,6.15
2019-03-16T13:19:12.357Z,7.12
2019-03-16T13:21:40.409Z,8.00
2019-03-16T13:24:08.356Z,4.90
2019-03-16T13:26:37.048Z,6.05
2019-03-16T13:29:05.015Z,5.90
2019-03-16T13:31:33.706Z,6.70
2019-03-16T13:34:01.677Z,7.58
2019-03-16T13:36:29.957Z,6.10
2019-03-16T13:38:57.898Z,6.87
2019-03-16T13:41:26.148Z,4.70
2019-03-16T13:43:54.172Z,4.05
2019-03-16T13:46:22.457Z,6.10
2019-03-16T13:48:50.464Z,4.40
2019-03-16T13:51:18.417Z,4.53
2019-03-16T13:53:47.270Z,4.50
2019-03-16T13:56:17.464Z,3.35
2019-03-16T13:58:45.708Z,3.45
2019-03-16T14:01:13.677Z,3.80
2019-03-16T14:03:41.997Z,3.50
2019-03-16T14:06:10.246Z,2.35
2019-03-16T14:08:38.700Z,2.65
2019-03-16T14:11:07.257Z,2.33
2019-03-16T14:13:35.846Z,5.12
2019-03-16T14:16:03.938Z,3.20
2019-03-16T14:18:32.299Z,4.70
2019-03-16T14:21:00.572Z,3.17
2019-03-16T14:23:28.935Z,3.08
2019-03-16T14:25:57.234Z,3.72
2019-03-16T14:28:27.028Z,3.15
2019-03-16T14:30:55.503Z,3.00
2019-03-16T14:33:23.805Z,2.55
2019-03-16T14:35:52.161Z,1.85
2019-03-16T14:38:22.068Z,3.80
2019-03-16T14:40:49.995Z,2.58
2019-03-16T14:43:18.366Z,3.30
2019-03-16T14:45:48.884Z,2.55
2019-03-16T14:48:16.225Z,2.50
2019-03-16T14:50:45.690Z,2.70
2019-03-16T14:53:13.777Z,2.27
2019-03-16T14:55:42.017Z,2.27
2019-03-16T14:58:09.986Z,2.40
2019-03-16T15:00:39.042Z,2.20
2019-03-16T15:03:07.067Z,2.40
2019-03-16T15:05:35.016Z,1.90
2019-03-16T15:08:03.346Z,2.40
2019-03-16T15:10:32.590Z,1.80
2019-03-16T15:13:00.794Z,1.50
2019-03-16T15:15:28.805Z,1.60
2019-03-16T15:17:57.287Z,1.70
2019-03-16T15:20:25.568Z,1.25
2019-03-16T15:22:53.777Z,1.70
2019-03-16T15:25:21.756Z,2.52
2019-03-16T15:27:50.401Z,1.90
2019-03-16T15:30:18.433Z,1.57
2019-03-16T15:32:46.323Z,1.70
2019-03-16T15:35:14.374Z,1.77
2019-03-16T15:37:42.301Z,2.45
2019-03-16T15:40:10.976Z,1.60
2019-03-16T15:42:38.986Z,1.50
2019-03-16T15:45:08.772Z,2.60
2019-03-16T15:47:36.868Z,2.30
2019-03-16T15:50:05.394Z,1.80
2019-03-16T15:52:33.958Z,2.67
2019-03-16T15:55:02.648Z,2.30
2019-03-16T15:57:31.230Z,2.70
2019-03-16T15:59:59.904Z,1.62
2019-03-16T16:02:28.091Z,1.72
2019-03-16T16:04:56.256Z,1.87
2019-03-16T16:07:24.686Z,2.20
2019-03-16T16:09:52.797Z,2.00
2019-03-16T16:12:20.982Z,1.87
2019-03-16T16:14:49.154Z,2.35
2019-03-16T16:17:17.908Z,2.15
2019-03-16T16:19:46.071Z,2.15
2019-03-16T16:22:17.079Z,2.42
2019-03-16T16:24:44.447Z,2.00
2019-03-16T16:27:13.752Z,2.27
2019-03-16T16:29:42.227Z,1.90
2019-03-16T16:32:10.727Z,2.20
2019-03-16T16:34:39.113Z,2.20
2019-03-16T16:37:08.453Z,1.80
2019-03-16T16:39:36.998Z,2.20
2019-03-16T16:42:05.319Z,2.20
2019-03-16T16:44:33.474Z,2.50
2019-03-16T16:47:01.665Z,2.70
2019-03-16T16:49:30.112Z,2.90
2019-03-16T16:51:58.273Z,2.87
2019-03-16T16:54:28.088Z,2.80
2019-03-16T16:56:56.572Z,3.10
2019-03-16T16:59:24.977Z,3.30
2019-03-16T17:01:53.064Z,4.12
2019-03-16T17:04:21.696Z,4.08
2019-03-16T17:06:51.601Z,4.10
2019-03-16T17:09:19.760Z,4.60
2019-03-16T17:11:48.183Z,7.57
2019-03-16T17:14:17.070Z,7.80
2019-03-16T17:16:45.689Z,5.10
2019-03-16T17:19:14.070Z,4.90
2019-03-16T17:21:42.457Z,6.40
2019-03-16T17:24:11.308Z,7.58
2019-03-16T17:26:39.687Z,8.03
2019-03-16T17:29:08.085Z,8.60
2019-03-16T17:31:42.311Z,8.83
2019-03-16T17:34:08.549Z,10.03
2019-03-16T17:36:36.725Z,12.33
2019-03-16T17:39:06.703Z,10.10
2019-03-16T17:41:35.243Z,12.13
2019-03-16T17:44:05.133Z,12.10
2019-03-16T17:46:33.304Z,12.23
2019-03-16T17:49:02.144Z,12.73
2019-03-16T17:51:30.544Z,17.65
2019-03-16T17:53:58.965Z,45.65
2019-03-16T17:56:27.345Z,15.10
2019-03-16T17:58:55.467Z,16.42
2019-03-16T18:01:24.022Z,17.25
2019-03-16T18:03:52.643Z,15.50
2019-03-16T18:06:20.967Z,17.23
2019-03-16T18:08:49.048Z,15.60
2019-03-16T18:11:17.144Z,15.98
2019-03-16T18:13:47.108Z,18.02
2019-03-16T18:16:15.224Z,18.07
2019-03-16T18:18:43.890Z,17.62
2019-03-16T18:21:11.979Z,18.12
2019-03-16T18:23:40.458Z,21.75
2019-03-16T18:26:09.294Z,16.97
2019-03-16T18:28:37.799Z,20.43
2019-03-16T18:31:05.829Z,17.17
2019-03-16T18:33:34.251Z,17.30
2019-03-16T18:36:02.704Z,16.70
2019-03-16T18:38:31.125Z,18.50
2019-03-16T18:40:59.490Z,18.70
2019-03-16T18:43:27.885Z,16.65
2019-03-16T18:45:55.928Z,51.18
2019-03-16T18:48:24.528Z,20.17
2019-03-16T18:50:52.572Z,17.83
2019-03-16T18:53:21.256Z,17.17
2019-03-16T18:55:49.582Z,17.42
2019-03-16T18:58:18.017Z,16.40
2019-03-16T19:00:46.872Z,17.10
2019-03-16T19:03:14.950Z,16.40
2019-03-16T19:05:43.555Z,16.40
2019-03-16T19:08:11.649Z,18.32
2019-03-16T19:10:40.976Z,15.00
2019-03-16T19:13:09.178Z,14.58
2019-03-16T19:15:37.622Z,16.00
2019-03-16T19:18:06.027Z,18.62
2019-03-16T19:20:34.467Z,16.27
2019-03-16T19:23:02.727Z,21.17
2019-03-16T19:25:31.723Z,18.57
2019-03-16T19:28:00.362Z,18.87
2019-03-16T19:30:30.803Z,16.65
2019-03-16T19:32:58.954Z,19.23
2019-03-16T19:35:29.691Z,16.67
2019-03-16T19:37:57.784Z,17.02
2019-03-16T19:40:25.960Z,21.12
2019-03-16T19:42:54.585Z,20.12
2019-03-16T19:45:22.956Z,21.10
2019-03-16T19:47:51.441Z,19.52
2019-03-16T19:50:19.489Z,18.60
2019-03-16T19:52:47.893Z,18.50
2019-03-16T19:55:16.254Z,20.23
2019-03-16T19:57:44.288Z,16.25
2019-03-16T20:00:13.193Z,15.48
2019-03-16T20:02:48.585Z,13.90
2019-03-16T20:05:12.244Z,14.47
2019-03-16T20:07:40.683Z,14.93
2019-03-16T20:10:09.473Z,13.65
2019-03-16T20:12:37.922Z,13.55
2019-03-16T20:15:06.621Z,15.00
2019-03-16T20:17:35.046Z,15.45
2019-03-16T20:20:03.692Z,12.30
2019-03-16T20:22:32.147Z,12.60
2019-03-16T20:25:00.645Z,12.60
2019-03-16T20:27:28.813Z,10.60
2019-03-16T20:29:57.481Z,13.08
2019-03-16T20:32:26.393Z,10.17
2019-03-16T20:34:54.487Z,11.85
2019-03-16T20:37:22.921Z,11.88
2019-03-16T20:39:51.663Z,11.93
2019-03-16T20:42:20.319Z,13.58
2019-03-16T20:44:48.364Z,9.18
2019-03-16T20:47:16.740Z,9.20
2019-03-16T20:49:44.855Z,11.20
2019-03-16T20:52:13.568Z,10.18
2019-03-16T20:54:42.698Z,9.98
2019-03-16T20:57:11.180Z,11.57
2019-03-16T20:59:39.336Z,8.40
2019-03-16T21:02:07.775Z,8.75
2019-03-16T21:04:35.856Z,9.27
2019-03-16T21:07:03.935Z,8.17
2019-03-16T21:09:32.110Z,8.53
2019-03-16T21:12:00.543Z,9.77
2019-03-16T21:14:29.012Z,11.33
2019-03-16T21:16:57.171Z,8.33
2019-03-16T21:19:25.893Z,9.70
2019-03-16T21:21:54.105Z,10.23
2019-03-16T21:24:22.679Z,9.08
2019-03-16T21:26:52.875Z,8.50
2019-03-16T21:29:21.302Z,8.63
2019-03-16T21:31:49.456Z,10.28
2019-03-16T21:34:17.913Z,10.08
2019-03-16T21:36:46.636Z,8.55
2019-03-16T21:39:16.981Z,9.98
2019-03-16T21:41:45.000Z,7.53
2019-03-16T21:44:13.193Z,8.78
2019-03-16T21:46:43.759Z,8.10
2019-03-16T21:49:11.445Z,6.58
2019-03-16T21:51:39.563Z,8.65
2019-03-16T21:54:07.855Z,7.30
2019-03-16T21:56:35.934Z,7.87
2019-03-16T21:59:04.589Z,8.00
2019-03-16T22:01:32.751Z,7.33
2019-03-16T22:04:01.060Z,6.87
2019-03-16T22:06:29.997Z,8.13
2019-03-16T22:08:58.716Z,8.55
2019-03-16T22:11:27.127Z,6.00
2019-03-16T22:13:55.852Z,6.35
2019-03-16T22:16:24.070Z,10.55
2019-03-16T22:18:52.451Z,10.13
2019-03-16T22:21:21.295Z,6.60
2019-03-16T22:23:49.369Z,5.15
2019-03-16T22:26:17.487Z,6.85
2019-03-16T22:28:46.320Z,7.30
2019-03-16T22:31:14.786Z,5.80
2019-03-16T22:33:53.869Z,8.18
2019-03-16T22:36:13.521Z,6.10
2019-03-16T22:38:42.016Z,7.90
2019-03-16T22:41:10.114Z,7.28
2019-03-16T22:43:38.205Z,8.25
2019-03-16T22:46:06.932Z,8.35
2019-03-16T22:48:35.087Z,7.53
2019-03-16T22:51:03.589Z,8.55
2019-03-16T22:53:32.216Z,6.67
2019-03-16T22:56:01.174Z,9.35
2019-03-16T22:58:29.563Z,8.07
2019-03-16T23:00:57.699Z,8.20
2019-03-16T23:03:25.827Z,7.42
2019-03-16T23:05:53.817Z,7.83
2019-03-16T23:08:22.105Z,6.05
2019-03-16T23:10:50.384Z,6.72
2019-03-16T23:13:19.099Z,6.90
2019-03-16T23:15:47.117Z,6.40
2019-03-16T23:18:15.421Z,6.87
2019-03-16T23:20:43.711Z,8.65
2019-03-16T23:23:13.063Z,8.08
2019-03-16T23:25:41.165Z,5.53
2019-03-16T23:28:09.573Z,7.17
2019-03-16T23:30:38.163Z,5.83
2019-03-16T23:33:06.353Z,9.95
2019-03-16T23:35:34.710Z,9.70
2019-03-16T23:38:03.264Z,8.23
2019-03-16T23:40:31.220Z,5.37
2019-03-16T23:42:59.437Z,7.22
2019-03-16T23:45:27.720Z,6.87
2019-03-16T23:47:56.010Z,6.28
2019-03-16T23:50:24.585Z,8.00
2019-03-16T23:52:52.837Z,8.30
2019-03-16T23:55:20.780Z,6.00
2019-03-16T23:57:49.207Z,6.62
